createdAt,value
2018-12-15T00:00:10.227Z,1.44
2018-12-15T00:01:10.236Z,1.42
2018-12-15T00:02:10.298Z,1.54
2018-12-15T00:03:10.257Z,1.58
2018-12-15T00:04:24.932Z,1.58
2018-12-15T00:05:10.283Z,1.42
2018-12-15T00:06:10.301Z,1.41
2018-12-15T00:07:10.059Z,1.42
2018-12-15T00:08:10.381Z,1.4
2018-12-15T00:10:10.344Z,1.41
2018-12-15T00:11:10.118Z,1.41
2018-12-15T00:12:10.367Z,1.4
2018-12-15T00:13:10.382Z,1.36
2018-12-15T00:14:10.394Z,1.44
2018-12-15T00:15:10.457Z,1.4
2018-12-15T00:16:25.080Z,1.42
2018-12-15T00:17:10.743Z,1.45
2018-12-15T00:18:10.442Z,1.55
2018-12-15T00:19:10.451Z,1.36
2018-12-15T00:20:25.128Z,1.36
2018-12-15T00:21:10.478Z,1.4
2018-12-15T00:22:10.491Z,1.36
2018-12-15T00:23:10.503Z,1.44
2018-12-15T00:24:10.514Z,1.29
2018-12-15T00:25:10.529Z,1.36
2018-12-15T00:26:10.538Z,1.52
2018-12-15T00:27:10.552Z,1.34
2018-12-15T00:28:10.571Z,1.4
2018-12-15T00:30:10.593Z,1.36
2018-12-15T00:32:25.276Z,1.5
2018-12-15T00:33:25.287Z,1.44
2018-12-15T00:34:10.645Z,1.36
2018-12-15T00:35:25.311Z,1.3
2018-12-15T00:36:10.676Z,1.41
2018-12-15T00:37:10.674Z,1.34
2018-12-15T00:38:10.736Z,1.36
2018-12-15T00:39:10.697Z,1.41
2018-12-15T00:40:25.382Z,1.34
2018-12-15T00:41:10.725Z,1.33
2018-12-15T00:42:10.735Z,1.34
2018-12-15T00:43:10.747Z,1.34
2018-12-15T00:44:10.759Z,1.37
2018-12-15T00:45:25.436Z,1.33
2018-12-15T00:46:10.784Z,1.4
2018-12-15T00:47:16.448Z,1.41
2018-12-15T00:48:10.811Z,1.47
2018-12-15T00:49:10.820Z,1.4
2018-12-15T00:50:10.833Z,1.42
2018-12-15T00:51:10.844Z,1.37
2018-12-15T00:52:10.861Z,1.37
2018-12-15T00:53:10.873Z,1.41
2018-12-15T00:54:25.298Z,1.45
2018-12-15T00:55:10.895Z,1.34
2018-12-15T00:56:10.906Z,1.41
2018-12-15T00:57:10.969Z,1.32
2018-12-15T00:58:10.693Z,1.44
2018-12-15T00:59:10.946Z,1.3
2018-12-15T01:01:10.972Z,1.33
2018-12-15T01:02:10.986Z,1.33
2018-12-15T01:03:25.655Z,1.36
2018-12-15T01:04:11.111Z,1.27
2018-12-15T01:05:11.019Z,1.42
2018-12-15T01:06:11.032Z,1.34
2018-12-15T01:07:25.702Z,1.24
2018-12-15T01:08:11.053Z,1.33
2018-12-15T01:09:11.065Z,1.41
2018-12-15T01:10:11.079Z,1.33
2018-12-15T01:11:11.089Z,1.33
2018-12-15T01:12:11.101Z,1.34
2018-12-15T01:13:11.163Z,1.23
2018-12-15T01:14:11.125Z,1.33
2018-12-15T01:16:11.154Z,1.34
2018-12-15T01:17:11.164Z,1.36
2018-12-15T01:18:11.175Z,1.3
2018-12-15T01:19:11.185Z,1.33
2018-12-15T01:20:11.199Z,1.33
2018-12-15T01:21:11.209Z,1.34
2018-12-15T01:22:11.223Z,1.34
2018-12-15T01:23:25.898Z,1.34
2018-12-15T01:24:11.250Z,1.4
2018-12-15T01:25:11.262Z,1.4
2018-12-15T01:26:11.272Z,1.32
2018-12-15T01:27:11.284Z,1.42
2018-12-15T01:28:11.295Z,1.4
2018-12-15T01:29:11.311Z,1.37
2018-12-15T01:31:26.099Z,1.27
2018-12-15T01:32:11.348Z,1.37
2018-12-15T01:33:11.357Z,1.34
2018-12-15T01:34:11.370Z,1.32
2018-12-15T01:35:11.388Z,1.33
2018-12-15T01:36:26.058Z,1.44
2018-12-15T01:37:26.068Z,1.3
2018-12-15T01:38:11.428Z,1.33
2018-12-15T01:39:26.146Z,1.42
2018-12-15T01:40:11.445Z,1.33
2018-12-15T01:41:11.455Z,1.36
2018-12-15T01:42:11.465Z,1.44
2018-12-15T01:43:11.480Z,1.4
2018-12-15T01:44:11.538Z,1.27
2018-12-15T01:45:11.504Z,1.36
2018-12-15T01:46:11.518Z,1.4
2018-12-15T01:47:11.530Z,1.33
2018-12-15T01:48:11.544Z,1.27
2018-12-15T01:49:11.557Z,1.4
2018-12-15T01:50:11.572Z,1.36
2018-12-15T01:51:26.241Z,1.4
2018-12-15T01:52:11.591Z,1.34
2018-12-15T01:53:11.653Z,1.37
2018-12-15T01:54:11.614Z,1.32
2018-12-15T01:55:26.292Z,1.37
2018-12-15T01:56:11.694Z,1.45
2018-12-15T01:57:11.650Z,1.42
2018-12-15T01:58:11.681Z,1.36
2018-12-15T01:59:11.676Z,1.41
2018-12-15T02:00:11.699Z,1.4
2018-12-15T02:01:11.749Z,1.4
2018-12-15T02:02:11.716Z,1.45
2018-12-15T02:03:11.724Z,1.4
2018-12-15T02:04:11.739Z,1.42
2018-12-15T02:05:11.748Z,1.3
2018-12-15T02:06:11.763Z,1.33
2018-12-15T02:07:11.775Z,1.34
2018-12-15T02:08:11.787Z,1.37
2018-12-15T02:09:26.463Z,1.36
2018-12-15T02:10:26.473Z,1.33
2018-12-15T02:11:11.824Z,1.34
2018-12-15T02:12:11.836Z,1.33
2018-12-15T02:13:11.857Z,1.2
2018-12-15T02:14:11.864Z,1.26
2018-12-15T02:15:11.873Z,1.3
2018-12-15T02:16:11.883Z,1.33
2018-12-15T02:17:11.899Z,1.37
2018-12-15T02:18:11.958Z,1.44
2018-12-15T02:19:11.919Z,1.33
2018-12-15T02:20:11.931Z,1.33
2018-12-15T02:21:11.945Z,1.29
2018-12-15T02:22:11.965Z,1.34
2018-12-15T02:23:26.633Z,1.37
2018-12-15T02:24:11.984Z,1.42
2018-12-15T02:26:12.006Z,1.26
2018-12-15T02:27:12.016Z,1.29
2018-12-15T02:28:12.029Z,1.24
2018-12-15T02:29:12.041Z,1.36
2018-12-15T02:30:12.072Z,1.37
2018-12-15T02:31:12.074Z,1.32
2018-12-15T02:32:12.090Z,1.34
2018-12-15T02:33:26.759Z,1.34
2018-12-15T02:35:12.173Z,1.29
2018-12-15T02:36:12.138Z,1.34
2018-12-15T02:37:12.139Z,1.34
2018-12-15T02:38:12.176Z,1.34
2018-12-15T02:39:12.168Z,1.29
2018-12-15T02:40:12.177Z,1.36
2018-12-15T02:41:12.291Z,1.34
2018-12-15T02:42:26.863Z,1.27
2018-12-15T02:43:12.217Z,1.22
2018-12-15T02:44:12.288Z,1.27
2018-12-15T02:45:12.290Z,1.37
2018-12-15T02:46:12.301Z,1.33
2018-12-15T02:47:12.269Z,1.36
2018-12-15T02:48:12.279Z,1.34
2018-12-15T02:49:12.289Z,1.2
2018-12-15T02:50:27.061Z,1.27
2018-12-15T02:51:12.314Z,1.36
2018-12-15T02:52:26.986Z,1.47
2018-12-15T02:55:12.364Z,1.34
2018-12-15T02:56:27.033Z,1.3
2018-12-15T02:57:12.384Z,1.27
2018-12-15T02:58:27.060Z,1.32
2018-12-15T02:59:12.407Z,1.34
2018-12-15T03:00:12.424Z,1.37
2018-12-15T03:01:12.434Z,1.42
2018-12-15T03:02:12.442Z,1.37
2018-12-15T03:03:12.454Z,1.41
2018-12-15T03:04:12.466Z,1.45
2018-12-15T03:05:12.486Z,1.44
2018-12-15T03:08:12.568Z,1.42
2018-12-15T03:09:12.532Z,1.34
2018-12-15T03:10:12.555Z,1.41
2018-12-15T03:11:12.554Z,1.32
2018-12-15T03:12:12.570Z,1.42
2018-12-15T03:13:12.588Z,1.44
2018-12-15T03:14:27.254Z,1.45
2018-12-15T03:15:12.601Z,1.42
2018-12-15T03:16:12.612Z,1.4
2018-12-15T03:17:12.631Z,1.32
2018-12-15T03:18:12.635Z,1.34
2018-12-15T03:19:12.657Z,1.51
2018-12-15T03:20:12.663Z,1.44
2018-12-15T03:21:12.716Z,1.44
2018-12-15T03:22:12.734Z,1.48
2018-12-15T03:24:12.716Z,1.36
2018-12-15T03:25:12.474Z,1.4
2018-12-15T03:26:12.737Z,1.47
2018-12-15T03:27:27.410Z,1.47
2018-12-15T03:28:27.420Z,1.52
2018-12-15T03:29:12.771Z,1.36
2018-12-15T03:31:12.806Z,1.42
2018-12-15T03:33:12.823Z,1.45
2018-12-15T03:34:12.838Z,1.48
2018-12-15T03:35:12.845Z,1.45
2018-12-15T03:36:12.859Z,1.44
2018-12-15T03:37:12.865Z,1.45
2018-12-15T03:39:12.896Z,1.52
2018-12-15T03:40:12.903Z,1.54
2018-12-15T03:42:12.985Z,1.45
2018-12-15T03:43:12.949Z,1.47
2018-12-15T03:44:12.983Z,1.37
2018-12-15T03:45:27.630Z,1.45
2018-12-15T03:47:12.992Z,1.4
2018-12-15T03:48:13.057Z,1.47
2018-12-15T03:49:13.027Z,1.4
2018-12-15T03:50:13.034Z,1.42
2018-12-15T03:51:13.043Z,1.45
2018-12-15T03:52:13.067Z,1.55
2018-12-15T03:53:13.069Z,1.58
2018-12-15T03:54:27.744Z,1.47
2018-12-15T03:55:13.105Z,1.59
2018-12-15T03:57:27.777Z,1.54
2018-12-15T03:58:13.128Z,1.6
2018-12-15T03:59:13.147Z,1.55
2018-12-15T04:00:13.158Z,1.54
2018-12-15T04:01:13.222Z,1.5
2018-12-15T04:02:13.174Z,1.59
2018-12-15T04:04:13.206Z,1.62
2018-12-15T04:05:13.220Z,1.68
2018-12-15T04:06:13.230Z,1.52
2018-12-15T04:07:13.258Z,1.54
2018-12-15T04:08:13.253Z,1.59
2018-12-15T04:10:13.287Z,1.44
2018-12-15T04:11:13.338Z,1.4
2018-12-15T04:12:13.306Z,1.44
2018-12-15T04:13:13.310Z,1.42
2018-12-15T04:14:27.986Z,1.52
2018-12-15T04:15:13.345Z,1.37
2018-12-15T04:16:13.350Z,1.33
2018-12-15T04:17:28.027Z,1.58
2018-12-15T04:18:13.376Z,1.4
2018-12-15T04:19:13.389Z,1.41
2018-12-15T04:21:13.415Z,1.32
2018-12-15T04:23:13.440Z,1.36
2018-12-15T04:24:13.453Z,1.32
2018-12-15T04:25:28.127Z,1.33
2018-12-15T04:26:13.523Z,1.41
2018-12-15T04:27:13.485Z,1.41
2018-12-15T04:28:13.507Z,1.37
2018-12-15T04:29:13.285Z,1.37
2018-12-15T04:30:13.524Z,1.41
2018-12-15T04:32:13.546Z,1.36
2018-12-15T04:33:28.221Z,1.33
2018-12-15T04:34:13.571Z,1.34
2018-12-15T04:35:13.588Z,1.33
2018-12-15T04:36:13.597Z,1.32
2018-12-15T04:37:13.656Z,1.32
2018-12-15T04:38:13.619Z,1.23
2018-12-15T04:39:13.631Z,1.32
2018-12-15T04:40:13.648Z,1.29
2018-12-15T04:41:13.653Z,1.23
2018-12-15T04:43:13.687Z,1.14
2018-12-15T04:44:13.704Z,1.22
2018-12-15T04:45:14.008Z,1.3
2018-12-15T04:46:13.715Z,1.26
2018-12-15T04:47:13.748Z,1.36
2018-12-15T04:48:16.256Z,1.26
2018-12-15T04:49:28.427Z,1.34
2018-12-15T04:50:13.766Z,1.41
2018-12-15T04:51:13.775Z,1.45
2018-12-15T04:52:13.797Z,1.34
2018-12-15T04:53:13.806Z,1.37
2018-12-15T04:54:13.813Z,1.3
2018-12-15T04:55:13.828Z,1.3
2018-12-15T04:56:13.939Z,1.26
2018-12-15T04:57:13.950Z,1.34
2018-12-15T04:58:13.861Z,1.3
2018-12-15T04:59:13.880Z,1.22
2018-12-15T05:00:13.892Z,1.23
2018-12-15T05:01:13.897Z,1.15
2018-12-15T05:02:28.571Z,1.11
2018-12-15T05:03:13.923Z,1.14
2018-12-15T05:04:14.010Z,1.16
2018-12-15T05:06:13.970Z,1.14
2018-12-15T05:07:13.970Z,1.16
2018-12-15T05:08:13.982Z,1.16
2018-12-15T05:09:13.997Z,1.16
2018-12-15T05:10:14.012Z,1.08
2018-12-15T05:11:14.021Z,1.14
2018-12-15T05:12:14.037Z,1.11
2018-12-15T05:13:14.044Z,1.18
2018-12-15T05:14:28.721Z,1.09
2018-12-15T05:16:14.090Z,1.16
2018-12-15T05:17:14.095Z,1.14
2018-12-15T05:18:20.544Z,1.14
2018-12-15T05:19:14.181Z,1.11
2018-12-15T05:20:28.791Z,1.12
2018-12-15T05:21:14.141Z,1.12
2018-12-15T05:22:14.153Z,1.14
2018-12-15T05:23:14.169Z,1.15
2018-12-15T05:24:14.178Z,1.2
2018-12-15T05:25:14.190Z,1.18
2018-12-15T05:26:14.200Z,1.18
2018-12-15T05:27:14.215Z,1.15
2018-12-15T05:28:14.254Z,1.18
2018-12-15T05:29:14.239Z,1.15
2018-12-15T05:31:14.268Z,1.12
2018-12-15T05:32:28.938Z,1.14
2018-12-15T05:33:14.287Z,1.22
2018-12-15T05:34:14.305Z,1.12
2018-12-15T05:35:14.309Z,1.06
2018-12-15T05:36:14.322Z,1.08
2018-12-15T05:37:14.339Z,1.15
2018-12-15T05:38:14.349Z,1.11
2018-12-15T05:39:14.459Z,1.23
2018-12-15T05:40:14.369Z,1.14
2018-12-15T05:41:14.391Z,1.15
2018-12-15T05:42:29.063Z,1.06
2018-12-15T05:43:14.410Z,1.14
2018-12-15T05:44:14.419Z,1.23
2018-12-15T05:45:14.430Z,1.04
2018-12-15T05:46:14.440Z,1.08
2018-12-15T05:47:14.455Z,1.08
2018-12-15T05:48:14.469Z,1.05
2018-12-15T05:49:14.481Z,1.08
2018-12-15T05:50:14.493Z,1.18
2018-12-15T05:51:14.502Z,1.09
2018-12-15T05:52:29.178Z,1.05
2018-12-15T05:53:14.527Z,1.11
2018-12-15T05:55:14.601Z,1.22
2018-12-15T05:56:14.564Z,1.15
2018-12-15T05:57:14.577Z,1.04
2018-12-15T05:58:14.586Z,1.06
2018-12-15T05:59:14.605Z,1.08
2018-12-15T06:00:14.661Z,1.04
2018-12-15T06:01:14.680Z,0.98
2018-12-15T06:02:14.639Z,0.96
2018-12-15T06:03:14.647Z,1.02
2018-12-15T06:04:14.661Z,1.02
2018-12-15T06:05:29.433Z,0.94
2018-12-15T06:06:14.687Z,1.04
2018-12-15T06:07:14.696Z,1.04
2018-12-15T06:08:29.369Z,0.97
2018-12-15T06:09:14.719Z,1.02
2018-12-15T06:10:14.730Z,1.02
2018-12-15T06:11:14.745Z,1.11
2018-12-15T06:12:14.795Z,1.08
2018-12-15T06:13:14.765Z,0.97
2018-12-15T06:14:14.779Z,1.18
2018-12-15T06:15:14.791Z,1.15
2018-12-15T06:16:29.536Z,1.12
2018-12-15T06:17:14.822Z,1.02
2018-12-15T06:18:14.825Z,1.06
2018-12-15T06:20:14.850Z,0.93
2018-12-15T06:21:14.860Z,1.02
2018-12-15T06:22:14.874Z,1.02
2018-12-15T06:23:14.886Z,1
2018-12-15T06:24:29.562Z,1.05
2018-12-15T06:25:29.586Z,1.08
2018-12-15T06:26:14.923Z,1.12
2018-12-15T06:27:14.932Z,1.2
2018-12-15T06:28:14.945Z,1.14
2018-12-15T06:29:14.957Z,1.14
2018-12-15T06:30:14.970Z,1.14
2018-12-15T06:31:14.984Z,1.14
2018-12-15T06:32:15.094Z,1.16
2018-12-15T06:33:15.006Z,1.09
2018-12-15T06:34:14.773Z,1.04
2018-12-15T06:35:15.030Z,1.12
2018-12-15T06:36:15.042Z,1.23
2018-12-15T06:37:29.716Z,1.12
2018-12-15T06:38:15.070Z,1.18
2018-12-15T06:39:15.077Z,1.04
2018-12-15T06:40:29.758Z,1.09
2018-12-15T06:41:15.101Z,1.09
2018-12-15T06:42:15.118Z,1.05
2018-12-15T06:43:15.124Z,1.12
2018-12-15T06:44:15.135Z,1.09
2018-12-15T06:45:15.150Z,1.15
2018-12-15T06:46:15.161Z,1.04
2018-12-15T06:47:15.231Z,1
2018-12-15T06:49:15.201Z,0.91
2018-12-15T06:50:15.212Z,0.94
2018-12-15T06:51:15.223Z,0.96
2018-12-15T06:52:15.237Z,0.94
2018-12-15T06:53:15.258Z,1.06
2018-12-15T06:54:15.258Z,1
2018-12-15T06:55:29.933Z,1.02
2018-12-15T06:56:15.288Z,1.12
2018-12-15T06:57:15.346Z,1.04
2018-12-15T06:58:15.307Z,1.11
2018-12-15T06:59:15.319Z,0.97
2018-12-15T07:01:15.376Z,1.12
2018-12-15T07:02:15.353Z,1.11
2018-12-15T07:03:15.369Z,1.15
2018-12-15T07:04:15.376Z,1.15
2018-12-15T07:06:15.402Z,1.06
2018-12-15T07:07:15.416Z,1.11
2018-12-15T07:08:30.089Z,1.11
2018-12-15T07:09:15.452Z,1.12
2018-12-15T07:10:15.448Z,1
2018-12-15T07:11:15.462Z,0.88
2018-12-15T07:12:15.480Z,0.98
2018-12-15T07:13:15.490Z,0.93
2018-12-15T07:14:15.309Z,0.97
2018-12-15T07:15:15.512Z,1
2018-12-15T07:16:15.569Z,0.97
2018-12-15T07:17:15.537Z,0.96
2018-12-15T07:18:15.550Z,0.96
2018-12-15T07:19:15.561Z,1.02
2018-12-15T07:20:15.625Z,1.12
2018-12-15T07:22:15.594Z,0.97
2018-12-15T07:23:15.606Z,1.02
2018-12-15T07:24:15.617Z,1.14
2018-12-15T07:25:15.636Z,1.12
2018-12-15T07:26:15.640Z,1.16
2018-12-15T07:27:30.395Z,1.14
2018-12-15T07:28:15.665Z,1.06
2018-12-15T07:29:15.675Z,1.09
2018-12-15T07:30:15.688Z,1.18
2018-12-15T07:31:15.752Z,1.12
2018-12-15T07:32:15.716Z,1.18
2018-12-15T07:33:17.207Z,1.2
2018-12-15T07:34:15.737Z,1.22
2018-12-15T07:35:15.751Z,1.14
2018-12-15T07:36:15.763Z,1.22
2018-12-15T07:37:15.778Z,1.22
2018-12-15T07:38:30.448Z,1.16
2018-12-15T07:39:30.460Z,1.2
2018-12-15T07:40:30.471Z,1.27
2018-12-15T07:41:15.825Z,1.29
2018-12-15T07:42:15.839Z,1.15
2018-12-15T07:43:30.507Z,1.12
2018-12-15T07:44:15.859Z,1.32
2018-12-15T07:45:15.876Z,1.33
2018-12-15T07:46:15.884Z,1.33
2018-12-15T07:47:15.895Z,1.34
2018-12-15T07:48:15.905Z,1.32
2018-12-15T07:50:15.978Z,1.34
2018-12-15T07:51:15.940Z,1.27
2018-12-15T07:53:15.964Z,1.34
2018-12-15T07:54:15.975Z,1.33
2018-12-15T07:55:15.991Z,1.32
2018-12-15T07:56:16.052Z,1.41
2018-12-15T07:57:16.022Z,1.33
2018-12-15T07:58:16.026Z,1.36
2018-12-15T07:59:30.702Z,1.3
2018-12-15T08:00:16.050Z,1.3
2018-12-15T08:01:16.068Z,1.22
2018-12-15T08:02:17.222Z,1.22
2018-12-15T08:03:16.083Z,1.27
2018-12-15T08:04:16.105Z,1.15
2018-12-15T08:05:16.113Z,1.14
2018-12-15T08:06:16.126Z,1.11
2018-12-15T08:07:16.133Z,1.27
2018-12-15T08:08:16.148Z,1.27
2018-12-15T08:09:16.159Z,1.22
2018-12-15T08:10:16.221Z,1.16
2018-12-15T08:11:16.183Z,1.14
2018-12-15T08:12:30.857Z,1.09
2018-12-15T08:13:16.208Z,1.08
2018-12-15T08:14:16.268Z,1.08
2018-12-15T08:15:30.893Z,1.16
2018-12-15T08:16:16.245Z,1.09
2018-12-15T08:17:16.255Z,1.18
2018-12-15T08:18:16.269Z,1.14
2018-12-15T08:19:16.281Z,1.11
2018-12-15T08:20:16.358Z,1.22
2018-12-15T08:21:16.302Z,1.32
2018-12-15T08:22:16.314Z,1.41
2018-12-15T08:23:16.328Z,1.4
2018-12-15T08:24:16.341Z,1.47
2018-12-15T08:25:16.386Z,1.37
2018-12-15T08:26:16.365Z,1.47
2018-12-15T08:27:16.382Z,1.45
2018-12-15T08:28:31.050Z,1.62
2018-12-15T08:29:16.401Z,1.51
2018-12-15T08:30:31.075Z,1.59
2018-12-15T08:31:16.431Z,1.6
2018-12-15T08:32:16.437Z,1.76
2018-12-15T08:33:16.449Z,1.6
2018-12-15T08:34:16.461Z,1.66
2018-12-15T08:35:16.476Z,1.69
2018-12-15T08:36:16.485Z,1.68
2018-12-15T08:37:16.497Z,1.8
2018-12-15T08:38:16.561Z,1.7
2018-12-15T08:39:16.521Z,1.58
2018-12-15T08:41:16.548Z,1.45
2018-12-15T08:42:16.558Z,1.54
2018-12-15T08:43:16.621Z,1.59
2018-12-15T08:44:16.634Z,1.65
2018-12-15T08:45:16.601Z,1.66
2018-12-15T08:46:16.610Z,1.73
2018-12-15T08:47:16.422Z,1.73
2018-12-15T08:48:16.630Z,1.79
2018-12-15T08:49:16.696Z,1.83
2018-12-15T08:50:16.823Z,1.7
2018-12-15T08:51:16.671Z,1.83
2018-12-15T08:52:16.682Z,1.9
2018-12-15T08:53:31.362Z,2.02
2018-12-15T08:54:16.711Z,1.91
2018-12-15T08:55:16.720Z,2.14
2018-12-15T08:56:16.735Z,2.1
2018-12-15T08:57:31.407Z,2.24
2018-12-15T08:58:31.419Z,2.21
2018-12-15T09:00:16.784Z,2.09
2018-12-15T09:01:16.794Z,2.12
2018-12-15T09:02:31.467Z,2.12
2018-12-15T09:04:16.831Z,2.14
2018-12-15T09:05:16.907Z,2.12
2018-12-15T09:06:16.854Z,2.17
2018-12-15T09:07:16.867Z,2.09
2018-12-15T09:09:16.893Z,2.1
2018-12-15T09:10:16.908Z,2.1
2018-12-15T09:11:16.919Z,2.18
2018-12-15T09:12:16.681Z,2.17
2018-12-15T09:13:16.942Z,2.12
2018-12-15T09:14:16.964Z,2.07
2018-12-15T09:15:17.017Z,2.23
2018-12-15T09:16:16.981Z,2.06
2018-12-15T09:17:17.004Z,2.09
2018-12-15T09:18:31.668Z,2.14
2018-12-15T09:19:17.026Z,2.07
2018-12-15T09:20:17.034Z,2.14
2018-12-15T09:21:17.043Z,2.23
2018-12-15T09:22:17.055Z,2.12
2018-12-15T09:23:17.066Z,2
2018-12-15T09:24:17.082Z,2.07
2018-12-15T09:25:17.097Z,2.1
2018-12-15T09:26:17.161Z,2.09
2018-12-15T09:27:17.121Z,2.09
2018-12-15T09:28:17.134Z,2.09
2018-12-15T09:29:17.144Z,2.07
2018-12-15T09:30:17.153Z,2.05
2018-12-15T09:31:17.169Z,2.05
2018-12-15T09:32:17.179Z,2.16
2018-12-15T09:33:17.194Z,2.12
2018-12-15T09:34:31.866Z,2.23
2018-12-15T09:35:17.215Z,2.23
2018-12-15T09:36:17.232Z,2.2
2018-12-15T09:37:17.247Z,2.28
2018-12-15T09:38:17.253Z,2.34
2018-12-15T09:39:17.275Z,2.14
2018-12-15T09:40:17.285Z,2.17
2018-12-15T09:41:17.392Z,2.06
2018-12-15T09:42:17.309Z,2.06
2018-12-15T09:43:17.316Z,2.03
2018-12-15T09:44:17.392Z,2
2018-12-15T09:45:17.342Z,2
2018-12-15T09:46:17.353Z,2.02
2018-12-15T09:47:17.369Z,1.99
2018-12-15T09:48:17.381Z,1.83
2018-12-15T09:49:22.759Z,1.95
2018-12-15T09:50:32.076Z,1.87
2018-12-15T09:51:17.419Z,1.81
2018-12-15T09:52:17.432Z,1.81
2018-12-15T09:53:17.441Z,1.87
2018-12-15T09:54:17.460Z,2.03
2018-12-15T09:55:17.467Z,1.95
2018-12-15T09:56:17.478Z,2.07
2018-12-15T09:57:17.498Z,2.05
2018-12-15T09:58:17.507Z,2.09
2018-12-15T10:00:32.195Z,2.16
2018-12-15T10:01:18.818Z,2.16
2018-12-15T10:02:17.558Z,2.24
2018-12-15T10:03:32.230Z,2.12
2018-12-15T10:04:17.581Z,2.12
2018-12-15T10:05:32.256Z,2
2018-12-15T10:06:17.617Z,2.06
2018-12-15T10:07:17.618Z,2.17
2018-12-15T10:08:17.637Z,2.09
2018-12-15T10:09:17.644Z,2.17
2018-12-15T10:10:17.661Z,2.21
2018-12-15T10:11:17.676Z,2.17
2018-12-15T10:12:17.690Z,2.16
2018-12-15T10:13:17.742Z,2.12
2018-12-15T10:14:17.704Z,2.24
2018-12-15T10:16:17.729Z,2.07
2018-12-15T10:17:32.407Z,2
2018-12-15T10:18:17.755Z,2.09
2018-12-15T10:19:24.049Z,2.14
2018-12-15T10:20:17.784Z,2.18
2018-12-15T10:21:17.795Z,2.23
2018-12-15T10:22:17.806Z,2.28
2018-12-15T10:23:17.819Z,2.2
2018-12-15T10:24:17.835Z,2.24
2018-12-15T10:25:17.596Z,2.24
2018-12-15T10:26:17.856Z,2.34
2018-12-15T10:27:17.870Z,2.35
2018-12-15T10:28:17.881Z,2.31
2018-12-15T10:29:32.562Z,2.31
2018-12-15T10:30:17.958Z,2.36
2018-12-15T10:31:17.923Z,2.42
2018-12-15T10:32:17.937Z,2.46
2018-12-15T10:33:17.945Z,2.35
2018-12-15T10:34:32.619Z,2.35
2018-12-15T10:35:17.972Z,2.45
2018-12-15T10:36:17.984Z,2.31
2018-12-15T10:37:32.657Z,2.39
2018-12-15T10:38:18.010Z,2.28
2018-12-15T10:39:18.019Z,2.3
2018-12-15T10:40:18.033Z,2.48
2018-12-15T10:41:18.047Z,2.46
2018-12-15T10:42:18.625Z,2.38
2018-12-15T10:43:18.074Z,2.3
2018-12-15T10:44:18.085Z,2.48
2018-12-15T10:45:18.096Z,2.48
2018-12-15T10:46:18.108Z,2.49
2018-12-15T10:47:18.130Z,2.42
2018-12-15T10:49:18.151Z,2.48
2018-12-15T10:50:32.823Z,2.36
2018-12-15T10:51:18.174Z,2.42
2018-12-15T10:52:18.191Z,2.45
2018-12-15T10:53:32.859Z,2.53
2018-12-15T10:54:18.211Z,2.35
2018-12-15T10:55:18.226Z,2.42
2018-12-15T10:56:18.238Z,2.48
2018-12-15T10:57:18.248Z,2.57
2018-12-15T10:58:18.312Z,2.57
2018-12-15T10:59:18.274Z,2.59
2018-12-15T11:00:18.289Z,2.63
2018-12-15T11:02:18.316Z,2.45
2018-12-15T11:03:32.991Z,2.54
2018-12-15T11:04:18.339Z,2.57
2018-12-15T11:05:18.355Z,2.45
2018-12-15T11:06:18.417Z,2.46
2018-12-15T11:07:18.383Z,2.52
2018-12-15T11:08:18.393Z,2.48
2018-12-15T11:09:33.065Z,2.43
2018-12-15T11:10:18.415Z,2.56
2018-12-15T11:11:18.429Z,2.42
2018-12-15T11:12:18.454Z,2.52
2018-12-15T11:13:18.451Z,2.6
2018-12-15T11:14:18.467Z,2.54
2018-12-15T11:15:18.484Z,2.56
2018-12-15T11:16:18.509Z,2.69
2018-12-15T11:17:18.579Z,2.72
2018-12-15T11:19:18.536Z,2.64
2018-12-15T11:20:18.547Z,2.6
2018-12-15T11:21:18.555Z,2.45
2018-12-15T11:22:18.573Z,2.56
2018-12-15T11:23:18.585Z,2.53
2018-12-15T11:24:18.646Z,2.36
2018-12-15T11:25:33.273Z,2.38
2018-12-15T11:26:18.620Z,2.35
2018-12-15T11:27:18.635Z,2.39
2018-12-15T11:28:18.647Z,2.3
2018-12-15T11:29:18.662Z,2.21
2018-12-15T11:30:18.673Z,2.09
2018-12-15T11:31:18.684Z,2.07
2018-12-15T11:32:18.700Z,2.09
2018-12-15T11:33:18.714Z,2.09
2018-12-15T11:35:18.742Z,2.09
2018-12-15T11:36:18.759Z,2.14
2018-12-15T11:37:18.761Z,2.1
2018-12-15T11:38:18.779Z,2.1
2018-12-15T11:39:18.808Z,2.12
2018-12-15T11:40:33.467Z,2.24
2018-12-15T11:41:18.812Z,2.3
2018-12-15T11:42:18.829Z,2.31
2018-12-15T11:43:18.888Z,2.28
2018-12-15T11:44:18.852Z,2.35
2018-12-15T11:45:18.868Z,2.3
2018-12-15T11:46:18.878Z,2.35
2018-12-15T11:47:18.896Z,2.36
2018-12-15T11:48:18.916Z,2.42
2018-12-15T11:49:18.912Z,2.43
2018-12-15T11:50:18.928Z,2.39
2018-12-15T11:51:18.941Z,2.43
2018-12-15T11:52:18.953Z,2.41
2018-12-15T11:53:33.628Z,2.48
2018-12-15T11:54:18.979Z,2.59
2018-12-15T11:55:18.992Z,2.46
2018-12-15T11:56:19.011Z,2.61
2018-12-15T11:57:19.021Z,2.56
2018-12-15T11:58:19.029Z,2.53
2018-12-15T11:59:19.078Z,2.63
2018-12-15T12:00:19.119Z,2.57
2018-12-15T12:01:19.067Z,2.54
2018-12-15T12:02:19.083Z,2.53
2018-12-15T12:03:19.094Z,2.63
2018-12-15T12:04:19.109Z,2.66
2018-12-15T12:05:19.124Z,2.67
2018-12-15T12:06:19.133Z,2.66
2018-12-15T12:07:19.163Z,2.71
2018-12-15T12:08:19.161Z,2.6
2018-12-15T12:09:19.171Z,2.67
2018-12-15T12:10:33.845Z,2.59
2018-12-15T12:11:19.195Z,2.67
2018-12-15T12:12:34.356Z,2.72
2018-12-15T12:13:19.242Z,2.75
2018-12-15T12:14:19.239Z,2.74
2018-12-15T12:15:19.306Z,2.69
2018-12-15T12:17:19.281Z,2.72
2018-12-15T12:18:19.286Z,2.67
2018-12-15T12:19:19.301Z,2.81
2018-12-15T12:21:19.327Z,2.75
2018-12-15T12:22:19.341Z,2.89
2018-12-15T12:23:34.015Z,2.93
2018-12-15T12:24:19.368Z,2.89
2018-12-15T12:25:34.038Z,2.93
2018-12-15T12:26:34.051Z,2.85
2018-12-15T12:27:19.403Z,2.87
2018-12-15T12:28:34.077Z,2.87
2018-12-15T12:29:19.435Z,2.92
2018-12-15T12:30:19.444Z,2.82
2018-12-15T12:31:19.454Z,2.74
2018-12-15T12:32:19.568Z,2.84
2018-12-15T12:34:19.492Z,2.77
2018-12-15T12:35:19.504Z,2.92
2018-12-15T12:36:19.582Z,2.92
2018-12-15T12:37:19.583Z,2.95
2018-12-15T12:38:19.545Z,2.84
2018-12-15T12:39:19.558Z,2.87
2018-12-15T12:40:19.577Z,2.9
2018-12-15T12:41:19.584Z,2.97
2018-12-15T12:42:19.610Z,2.87
2018-12-15T12:43:19.617Z,2.93
2018-12-15T12:44:34.286Z,2.96
2018-12-15T12:45:19.735Z,2.9
2018-12-15T12:46:19.648Z,2.97
2018-12-15T12:47:19.666Z,2.85
2018-12-15T12:48:34.089Z,2.67
2018-12-15T12:50:19.775Z,2.48
2018-12-15T12:52:19.732Z,2.49
2018-12-15T12:53:19.742Z,2.48
2018-12-15T12:54:19.511Z,2.57
2018-12-15T12:55:19.773Z,2.67
2018-12-15T12:56:34.441Z,2.66
2018-12-15T12:57:19.792Z,2.66
2018-12-15T12:58:19.857Z,2.79
2018-12-15T12:59:19.816Z,2.78
2018-12-15T13:00:34.493Z,2.71
2018-12-15T13:01:19.848Z,2.78
2018-12-15T13:02:19.857Z,2.82
2018-12-15T13:03:19.869Z,2.72
2018-12-15T13:04:19.884Z,2.84
2018-12-15T13:05:19.895Z,2.81
2018-12-15T13:06:19.906Z,2.78
2018-12-15T13:07:19.921Z,2.78
2018-12-15T13:08:19.937Z,2.71
2018-12-15T13:10:19.962Z,2.72
2018-12-15T13:11:19.972Z,2.66
2018-12-15T13:12:19.987Z,2.46
2018-12-15T13:13:34.663Z,2.64
2018-12-15T13:14:20.016Z,2.66
2018-12-15T13:15:34.688Z,2.71
2018-12-15T13:16:20.039Z,2.75
2018-12-15T13:17:20.056Z,2.56
2018-12-15T13:18:20.072Z,2.63
2018-12-15T13:19:20.079Z,2.54
2018-12-15T13:20:20.099Z,2.48
2018-12-15T13:21:20.106Z,2.54
2018-12-15T13:22:20.122Z,2.48
2018-12-15T13:23:20.129Z,2.54
2018-12-15T13:24:20.144Z,2.53
2018-12-15T13:25:20.207Z,2.52
2018-12-15T13:26:20.174Z,2.39
2018-12-15T13:27:20.186Z,2.45
2018-12-15T13:28:20.199Z,2.3
2018-12-15T13:29:20.213Z,2.36
2018-12-15T13:30:20.223Z,2.48
2018-12-15T13:31:20.233Z,2.53
2018-12-15T13:32:20.245Z,2.45
2018-12-15T13:33:20.264Z,2.53
2018-12-15T13:34:20.272Z,2.48
2018-12-15T13:35:20.289Z,2.49
2018-12-15T13:36:20.321Z,2.35
2018-12-15T13:37:20.312Z,2.41
2018-12-15T13:38:20.326Z,2.35
2018-12-15T13:39:20.388Z,2.45
2018-12-15T13:40:20.352Z,2.52
2018-12-15T13:41:20.361Z,2.52
2018-12-15T13:42:20.376Z,2.67
2018-12-15T13:43:20.399Z,2.74
2018-12-15T13:44:20.404Z,2.67
2018-12-15T13:45:20.416Z,2.75
2018-12-15T13:46:20.426Z,2.74
2018-12-15T13:47:35.103Z,2.69
2018-12-15T13:48:21.225Z,2.71
2018-12-15T13:49:20.465Z,2.72
2018-12-15T13:50:20.479Z,2.57
2018-12-15T13:51:20.491Z,2.61
2018-12-15T13:52:20.505Z,2.74
2018-12-15T13:53:20.521Z,2.56
2018-12-15T13:54:20.528Z,2.48
2018-12-15T13:55:20.550Z,2.48
2018-12-15T13:56:20.554Z,2.64
2018-12-15T13:57:20.617Z,2.72
2018-12-15T13:58:20.587Z,2.71
2018-12-15T13:59:20.595Z,2.75
2018-12-15T14:00:20.649Z,2.59
2018-12-15T14:01:20.624Z,2.54
2018-12-15T14:02:20.685Z,2.59
2018-12-15T14:03:35.308Z,2.61
2018-12-15T14:04:20.661Z,2.52
2018-12-15T14:05:20.669Z,2.57
2018-12-15T14:06:20.739Z,2.46
2018-12-15T14:07:20.703Z,2.36
2018-12-15T14:08:20.711Z,2.42
2018-12-15T14:09:20.775Z,2.45
2018-12-15T14:10:20.737Z,2.52
2018-12-15T14:11:20.752Z,2.54
2018-12-15T14:12:20.763Z,2.45
2018-12-15T14:13:20.775Z,2.49